createdAt,value
2022-09-06T00:01:14.198Z,55.50
2022-09-06T00:03:43.796Z,55.60
2022-09-06T00:06:14.604Z,55.40
2022-09-06T00:08:47.111Z,55.40
2022-09-06T00:11:17.307Z,55.00
2022-09-06T00:13:47.062Z,55.20
2022-09-06T00:16:21.450Z,55.20
2022-09-06T00:18:51.447Z,55.10
2022-09-06T00:21:22.475Z,55.20
2022-09-06T00:23:52.266Z,54.80
2022-09-06T00:26:21.830Z,54.90
2022-09-06T00:28:51.416Z,54.90
2022-09-06T00:31:24.985Z,54.90
2022-09-06T00:33:54.645Z,54.90
2022-09-06T00:36:24.255Z,55.10
2022-09-06T00:38:53.807Z,55.00
2022-09-06T00:41:24.437Z,54.90
2022-09-06T00:43:54.115Z,54.90
2022-09-06T00:46:24.953Z,54.90
2022-09-06T00:48:55.428Z,54.80
2022-09-06T00:51:25.527Z,54.40
2022-09-06T00:53:55.070Z,54.70
2022-09-06T00:56:24.853Z,54.90
2022-09-06T00:58:54.620Z,54.90
2022-09-06T01:01:24.381Z,54.90
2022-09-06T01:03:54.014Z,54.80
2022-09-06T01:06:25.838Z,54.90
2022-09-06T01:08:59.021Z,54.70
2022-09-06T01:11:41.455Z,54.70
2022-09-06T01:14:34.019Z,54.50
2022-09-06T01:17:03.850Z,54.60
2022-09-06T01:19:51.829Z,54.40
2022-09-06T01:22:24.456Z,54.30
2022-09-06T01:25:01.921Z,54.20
2022-09-06T01:27:31.563Z,54.20
2022-09-06T01:30:06.380Z,54.10
2022-09-06T01:32:43.733Z,54.00
2022-09-06T01:35:16.862Z,53.90
2022-09-06T01:37:47.391Z,54.00
2022-09-06T01:40:17.080Z,53.80
2022-09-06T01:42:46.566Z,53.90
2022-09-06T01:45:16.820Z,53.90
2022-09-06T01:48:08.824Z,54.30
2022-09-06T01:50:58.982Z,54.60
2022-09-06T01:53:34.673Z,54.40
2022-09-06T01:56:08.851Z,54.30
2022-09-06T01:58:58.711Z,54.20
2022-09-06T02:01:39.461Z,54.20
2022-09-06T02:04:12.650Z,54.00
2022-09-06T02:06:44.072Z,54.00
2022-09-06T02:09:18.119Z,54.00
2022-09-06T02:11:52.263Z,53.50
2022-09-06T02:14:46.540Z,53.70
2022-09-06T02:17:16.849Z,53.60
2022-09-06T02:19:47.922Z,53.50
2022-09-06T02:22:18.641Z,53.30
2022-09-06T02:24:49.200Z,53.40
2022-09-06T02:27:18.996Z,53.40
2022-09-06T02:29:48.679Z,53.40
2022-09-06T02:32:22.070Z,53.60
2022-09-06T02:34:56.399Z,53.50
2022-09-06T02:37:27.373Z,53.40
2022-09-06T02:39:57.235Z,53.10
2022-09-06T02:42:26.731Z,53.80
2022-09-06T02:44:59.113Z,53.20
2022-09-06T02:47:28.614Z,53.30
2022-09-06T02:50:07.203Z,53.20
2022-09-06T02:52:36.700Z,53.20
2022-09-06T02:55:06.491Z,53.20
2022-09-06T02:57:38.662Z,53.00
2022-09-06T03:00:17.038Z,53.10
2022-09-06T03:02:49.827Z,53.20
2022-09-06T03:05:19.599Z,53.10
2022-09-06T03:07:49.689Z,53.10
2022-09-06T03:10:19.820Z,52.90
2022-09-06T03:12:49.333Z,53.00
2022-09-06T03:15:19.308Z,53.00
2022-09-06T03:17:49.489Z,53.10
2022-09-06T03:20:19.245Z,53.00
2022-09-06T03:22:49.369Z,52.90
2022-09-06T03:25:18.998Z,52.70
2022-09-06T03:27:49.017Z,53.30
2022-09-06T03:30:18.716Z,52.80
2022-09-06T03:32:48.385Z,52.70
2022-09-06T03:35:18.007Z,52.70
2022-09-06T03:37:47.651Z,52.70
2022-09-06T03:40:17.738Z,52.60
2022-09-06T03:42:50.891Z,52.40
2022-09-06T03:45:26.534Z,52.40
2022-09-06T03:47:56.183Z,52.30
2022-09-06T03:50:25.638Z,52.20
2022-09-06T03:52:56.655Z,52.00
2022-09-06T03:55:31.140Z,52.00
2022-09-06T03:58:00.687Z,52.10
2022-09-06T04:00:30.366Z,52.00
2022-09-06T04:03:02.988Z,51.90
2022-09-06T04:05:38.051Z,51.70
2022-09-06T04:08:10.154Z,51.70
2022-09-06T04:10:39.790Z,52.10
2022-09-06T04:13:09.506Z,51.50
2022-09-06T04:15:39.074Z,51.30
2022-09-06T04:18:09.330Z,51.20
2022-09-06T04:20:39.138Z,51.10
2022-09-06T04:23:08.670Z,51.10
2022-09-06T04:25:38.530Z,50.80
2022-09-06T04:28:12.374Z,50.80
2022-09-06T04:30:41.955Z,50.70
2022-09-06T04:33:11.493Z,50.50
2022-09-06T04:35:41.049Z,50.40
2022-09-06T04:38:10.590Z,50.40
2022-09-06T04:40:40.145Z,50.90
2022-09-06T04:43:09.867Z,41.70
2022-09-06T04:45:39.570Z,43.30
2022-09-06T04:48:09.333Z,39.60
2022-09-06T04:50:39.107Z,41.00
2022-09-06T04:53:09.396Z,41.20
2022-09-06T04:55:39.477Z,40.50
2022-09-06T04:58:08.980Z,40.60
2022-09-06T05:00:44.202Z,41.50
2022-09-06T05:03:17.195Z,40.70
2022-09-06T05:05:46.726Z,41.40
2022-09-06T05:08:16.325Z,40.80
2022-09-06T05:10:45.807Z,40.70
2022-09-06T05:13:15.359Z,39.30
2022-09-06T05:15:45.339Z,39.70
2022-09-06T05:18:16.229Z,40.00
2022-09-06T05:20:45.815Z,37.20
2022-09-06T05:23:15.298Z,40.00
2022-09-06T05:25:44.821Z,39.50
2022-09-06T05:28:14.347Z,38.40
2022-09-06T05:30:43.904Z,39.10
2022-09-06T05:33:14.215Z,37.70
2022-09-06T05:35:43.807Z,38.60
2022-09-06T05:38:13.269Z,37.00
2022-09-06T05:40:53.303Z,37.80
2022-09-06T05:43:24.049Z,40.30
2022-09-06T05:45:55.083Z,41.10
2022-09-06T05:48:24.600Z,42.50
2022-09-06T05:51:05.301Z,43.10
2022-09-06T05:53:41.673Z,43.20
2022-09-06T05:56:11.687Z,43.60
2022-09-06T05:58:41.314Z,44.40
2022-09-06T06:01:45.515Z,44.40
2022-09-06T06:04:15.697Z,44.50
2022-09-06T06:06:45.287Z,44.50
2022-09-06T06:09:15.467Z,44.50
2022-09-06T06:11:45.159Z,44.70
2022-09-06T06:14:14.756Z,44.60
2022-09-06T06:16:48.178Z,44.80
2022-09-06T06:19:21.051Z,44.80
2022-09-06T06:21:50.629Z,44.70
2022-09-06T06:24:20.227Z,44.80
2022-09-06T06:26:50.459Z,44.80
2022-09-06T06:29:20.750Z,44.90
2022-09-06T06:31:50.260Z,44.80
2022-09-06T06:34:23.351Z,44.80
2022-09-06T06:36:52.901Z,44.70
2022-09-06T06:39:22.415Z,44.50
2022-09-06T06:41:52.129Z,43.50
2022-09-06T06:44:46.339Z,41.20
2022-09-06T06:47:16.418Z,39.10
2022-09-06T06:49:50.235Z,38.00
2022-09-06T06:52:22.533Z,37.30
2022-09-06T06:54:52.253Z,36.80
2022-09-06T06:57:21.820Z,36.20
2022-09-06T06:59:53.400Z,35.50
2022-09-06T07:02:23.285Z,35.10
2022-09-06T07:04:53.045Z,34.60
2022-09-06T07:12:49.243Z,33.70
2022-09-06T07:15:21.676Z,33.70
2022-09-06T07:17:57.969Z,34.00
2022-09-06T07:20:27.985Z,34.20
2022-09-06T07:25:54.258Z,34.20
2022-09-06T07:28:24.852Z,34.80
2022-09-06T07:30:55.157Z,34.80
2022-09-06T07:33:41.394Z,34.90
2022-09-06T07:36:12.693Z,35.20
2022-09-06T07:38:42.322Z,35.00
2022-09-06T07:41:13.282Z,35.30
2022-09-06T07:43:42.856Z,35.40
2022-09-06T07:46:15.337Z,35.30
2022-09-06T07:48:46.917Z,35.40
2022-09-06T07:51:19.598Z,35.50
2022-09-06T07:54:07.112Z,35.70
2022-09-06T07:56:42.659Z,35.90
2022-09-06T07:59:12.362Z,36.00
2022-09-06T08:01:42.257Z,36.00
2022-09-06T08:04:15.283Z,36.20
2022-09-06T08:09:37.554Z,36.50
2022-09-06T08:12:10.071Z,36.60
2022-09-06T08:14:39.844Z,36.70
2022-09-06T08:17:10.321Z,36.90
2022-09-06T08:19:39.955Z,37.00
2022-09-06T08:22:09.731Z,37.10
2022-09-06T08:24:39.837Z,37.10
2022-09-06T08:27:09.393Z,37.20
2022-09-06T08:29:39.056Z,37.10
2022-09-06T08:32:08.827Z,37.10
2022-09-06T08:34:38.390Z,37.30
2022-09-06T08:37:08.037Z,37.20
2022-09-06T08:39:38.066Z,37.20
2022-09-06T08:42:07.757Z,37.30
2022-09-06T08:44:59.059Z,37.30
2022-09-06T08:47:29.240Z,37.30
2022-09-06T08:50:02.285Z,37.40
2022-09-06T08:52:32.344Z,37.40
2022-09-06T08:55:08.492Z,37.50
2022-09-06T08:57:40.458Z,37.40
2022-09-06T09:00:12.611Z,37.50
2022-09-06T09:02:46.353Z,37.80
2022-09-06T09:05:36.299Z,37.90
2022-09-06T09:08:06.471Z,38.10
2022-09-06T09:10:43.812Z,38.70
2022-09-06T09:13:19.027Z,39.10
2022-09-06T09:15:48.796Z,39.50
2022-09-06T09:18:19.341Z,39.90
2022-09-06T09:20:49.057Z,40.30
2022-09-06T09:23:18.721Z,39.80
2022-09-06T09:25:48.364Z,39.60
2022-09-06T09:28:19.133Z,40.00
2022-09-06T09:30:50.597Z,40.20
2022-09-06T09:33:24.440Z,40.20
2022-09-06T09:35:54.147Z,40.30
2022-09-06T09:38:26.882Z,40.60
2022-09-06T09:41:00.334Z,40.60
2022-09-06T09:43:29.971Z,40.70
2022-09-06T09:46:17.911Z,40.70
2022-09-06T09:49:07.015Z,41.10
2022-09-06T09:51:37.545Z,41.10
2022-09-06T09:54:08.092Z,40.90
2022-09-06T09:56:47.056Z,41.10
2022-09-06T09:59:19.430Z,41.20
2022-09-06T10:01:48.929Z,41.20
2022-09-06T10:04:45.333Z,41.30
2022-09-06T10:07:19.012Z,41.50
2022-09-06T10:09:52.708Z,41.60
2022-09-06T10:12:35.399Z,41.80
2022-09-06T10:15:06.933Z,41.90
2022-09-06T10:17:37.894Z,42.00
2022-09-06T10:20:09.310Z,42.00
2022-09-06T10:23:17.009Z,42.10
2022-09-06T10:26:04.817Z,42.70
2022-09-06T10:28:52.258Z,42.30
2022-09-06T10:31:28.347Z,42.30
2022-09-06T10:34:01.649Z,42.40
2022-09-06T10:36:36.102Z,42.60
2022-09-06T10:39:20.851Z,42.60
2022-09-06T10:42:13.052Z,42.70
2022-09-06T10:44:54.610Z,42.90
2022-09-06T10:47:24.113Z,42.90
2022-09-06T10:49:55.378Z,43.00
2022-09-06T10:52:26.872Z,43.00
2022-09-06T10:54:57.293Z,43.10
2022-09-06T11:00:23.282Z,43.30
2022-09-06T11:05:47.755Z,43.40
2022-09-06T11:11:22.072Z,43.50
2022-09-06T11:13:51.773Z,43.70
2022-09-06T11:16:23.739Z,43.70
2022-09-06T11:18:55.809Z,43.70
2022-09-06T11:21:28.404Z,43.80
2022-09-06T11:24:01.213Z,43.80
2022-09-06T11:26:38.165Z,43.90
2022-09-06T11:29:23.774Z,44.50
2022-09-06T11:34:46.896Z,44.30
2022-09-06T11:37:26.144Z,44.40
2022-09-06T11:42:57.066Z,44.60
2022-09-06T11:45:41.779Z,44.90
2022-09-06T11:48:27.549Z,44.90
2022-09-06T11:51:00.241Z,44.90
2022-09-06T11:53:30.722Z,45.00
2022-09-06T11:56:05.944Z,45.00
2022-09-06T11:58:41.774Z,45.20
2022-09-06T12:01:31.351Z,45.30
2022-09-06T12:04:03.858Z,45.50
2022-09-06T12:06:36.607Z,46.20
2022-09-06T12:09:26.020Z,45.70
2022-09-06T12:11:57.661Z,45.80
2022-09-06T12:14:34.533Z,45.90
2022-09-06T12:17:06.196Z,46.00
2022-09-06T12:19:44.572Z,45.90
2022-09-06T12:22:37.703Z,46.00
2022-09-06T12:25:25.835Z,46.00
2022-09-06T12:27:58.945Z,46.30
2022-09-06T12:30:46.630Z,46.20
2022-09-06T12:33:18.402Z,46.50
2022-09-06T12:38:25.599Z,46.80
2022-09-06T12:41:00.169Z,46.80
2022-09-06T12:43:30.825Z,46.90
2022-09-06T12:46:00.575Z,46.90
2022-09-06T12:48:31.219Z,47.10
2022-09-06T12:51:03.839Z,47.10
2022-09-06T12:53:35.385Z,47.20
2022-09-06T12:56:13.626Z,47.40
2022-09-06T12:58:43.238Z,47.30
2022-09-06T13:01:18.374Z,47.50
2022-09-06T13:03:55.279Z,47.50
2022-09-06T13:06:27.226Z,47.70
2022-09-06T13:08:58.283Z,47.60
2022-09-06T13:11:30.787Z,47.80
2022-09-06T13:14:00.326Z,47.90
2022-09-06T13:16:30.701Z,48.00
2022-09-06T13:19:13.667Z,47.90
2022-09-06T13:21:43.778Z,48.10
2022-09-06T13:24:40.680Z,48.10
2022-09-06T13:27:31.261Z,48.20
2022-09-06T13:30:01.973Z,48.30
2022-09-06T13:32:32.196Z,48.30
2022-09-06T13:35:01.943Z,48.40
2022-09-06T13:37:32.723Z,48.40
2022-09-06T13:40:06.175Z,48.50
2022-09-06T13:42:37.766Z,48.50
2022-09-06T13:45:23.221Z,48.60
2022-09-06T13:47:59.944Z,48.60
2022-09-06T13:50:42.837Z,48.70
2022-09-06T13:53:12.369Z,48.70
2022-09-06T13:55:42.661Z,48.70
2022-09-06T13:58:12.139Z,48.90
2022-09-06T14:00:42.390Z,48.80
2022-09-06T14:03:12.935Z,48.90
2022-09-06T14:05:42.519Z,48.80
2022-09-06T14:08:13.563Z,48.90
2022-09-06T14:10:43.617Z,49.00
2022-09-06T14:13:13.626Z,49.20
2022-09-06T14:15:43.209Z,49.00
2022-09-06T14:18:14.438Z,49.10
2022-09-06T14:20:45.277Z,49.10
2022-09-06T14:23:14.866Z,49.30
2022-09-06T14:25:44.298Z,49.20
2022-09-06T14:28:13.798Z,49.30
2022-09-06T14:30:43.270Z,49.40
2022-09-06T14:33:12.908Z,49.40
2022-09-06T14:35:42.406Z,49.40
2022-09-06T14:38:11.932Z,49.40
2022-09-06T14:40:41.607Z,49.50
2022-09-06T14:43:11.211Z,49.50
2022-09-06T14:45:41.265Z,49.60
2022-09-06T14:48:10.777Z,49.70
2022-09-06T14:50:40.320Z,49.60
2022-09-06T14:53:30.102Z,49.70
2022-09-06T14:56:03.089Z,49.70
2022-09-06T14:58:33.457Z,49.70
2022-09-06T15:01:09.230Z,49.80
2022-09-06T15:03:38.855Z,50.00
2022-09-06T15:06:09.225Z,49.80
2022-09-06T15:08:39.167Z,50.00
2022-09-06T15:11:09.282Z,50.00
2022-09-06T15:13:41.846Z,50.00
2022-09-06T15:16:12.479Z,50.00
2022-09-06T15:18:42.007Z,50.10
2022-09-06T15:21:15.620Z,50.30
2022-09-06T15:23:45.244Z,50.30
2022-09-06T15:26:15.161Z,50.30
2022-09-06T15:28:47.666Z,50.20
2022-09-06T15:31:17.433Z,50.30
2022-09-06T15:33:47.050Z,50.50
2022-09-06T15:36:17.444Z,50.50
2022-09-06T15:38:50.206Z,50.50
2022-09-06T15:41:26.425Z,50.50
2022-09-06T15:43:56.694Z,50.50
2022-09-06T15:46:40.840Z,50.60
2022-09-06T15:49:10.941Z,50.70
2022-09-06T15:51:41.485Z,50.60
2022-09-06T15:54:11.368Z,50.70
2022-09-06T15:56:40.867Z,50.80
2022-09-06T15:59:10.518Z,50.70
2022-09-06T16:01:40.387Z,50.70
2022-09-06T16:04:10.195Z,50.80
2022-09-06T16:06:40.829Z,50.80
2022-09-06T16:09:15.262Z,50.90
2022-09-06T16:11:44.877Z,50.80
2022-09-06T16:14:14.982Z,50.90
2022-09-06T16:16:44.899Z,51.00
2022-09-06T16:19:14.844Z,51.00
2022-09-06T16:21:44.447Z,51.00
2022-09-06T16:24:14.338Z,51.00
2022-09-06T16:26:44.589Z,50.90
2022-09-06T16:29:14.679Z,51.10
2022-09-06T16:31:44.208Z,51.00
2022-09-06T16:34:13.843Z,51.20
2022-09-06T16:36:43.428Z,51.10
2022-09-06T16:39:13.004Z,51.10
2022-09-06T16:41:43.890Z,51.20
2022-09-06T16:44:20.046Z,51.30
2022-09-06T16:46:49.843Z,51.20
2022-09-06T16:49:20.305Z,51.20
2022-09-06T16:51:51.091Z,51.00
2022-09-06T16:54:20.683Z,51.20
2022-09-06T16:56:50.188Z,51.40
2022-09-06T16:59:19.727Z,51.50
2022-09-06T17:01:49.292Z,51.50
2022-09-06T17:04:19.577Z,51.30
2022-09-06T17:06:49.104Z,51.40
2022-09-06T17:09:22.369Z,51.90
2022-09-06T17:11:52.306Z,51.50
2022-09-06T17:14:21.788Z,51.40
2022-09-06T17:17:06.450Z,51.50
2022-09-06T17:19:37.732Z,51.60
2022-09-06T17:22:08.157Z,51.60
2022-09-06T17:24:38.155Z,51.60
2022-09-06T17:27:07.907Z,51.60
2022-09-06T17:29:37.584Z,52.20
2022-09-06T17:32:11.253Z,51.70
2022-09-06T17:34:41.024Z,51.80
2022-09-06T17:37:10.560Z,51.80
2022-09-06T17:39:40.165Z,51.60
2022-09-06T17:42:10.358Z,51.80
2022-09-06T17:44:40.007Z,52.00
2022-09-06T17:47:12.830Z,51.70
2022-09-06T17:49:43.897Z,51.80
2022-09-06T17:52:15.018Z,51.80
2022-09-06T17:54:45.351Z,51.90
2022-09-06T17:57:14.983Z,51.90
2022-09-06T17:59:44.419Z,51.80
2022-09-06T18:02:13.993Z,51.90
2022-09-06T18:04:43.496Z,51.90
2022-09-06T18:07:13.045Z,51.90
2022-09-06T18:09:42.860Z,52.10
2022-09-06T18:12:12.362Z,52.00
2022-09-06T18:14:42.463Z,51.90
2022-09-06T18:17:11.904Z,51.90
2022-09-06T18:19:41.629Z,51.80
2022-09-06T18:22:11.229Z,52.10
2022-09-06T18:24:40.834Z,52.10
2022-09-06T18:27:10.514Z,52.00
2022-09-06T18:29:40.667Z,52.30
2022-09-06T18:32:10.703Z,51.90
2022-09-06T18:34:40.358Z,52.20
2022-09-06T18:37:10.113Z,52.20
2022-09-06T18:39:40.702Z,52.20
2022-09-06T18:42:12.508Z,52.20
2022-09-06T18:44:42.243Z,52.40
2022-09-06T18:47:13.451Z,52.10
2022-09-06T18:49:44.453Z,52.20
2022-09-06T18:52:14.891Z,52.30
2022-09-06T18:54:44.904Z,52.10
2022-09-06T18:57:15.975Z,52.20
2022-09-06T18:59:46.018Z,52.40
2022-09-06T19:02:16.292Z,52.30
2022-09-06T19:04:47.190Z,52.40
2022-09-06T19:07:17.174Z,52.30
2022-09-06T19:09:46.945Z,52.40
2022-09-06T19:12:17.159Z,52.30
2022-09-06T19:14:46.701Z,52.20
2022-09-06T19:17:16.144Z,52.50
2022-09-06T19:19:45.617Z,52.50
2022-09-06T19:22:15.110Z,52.70
2022-09-06T19:24:45.544Z,52.40
2022-09-06T19:27:15.123Z,52.70
2022-09-06T19:29:44.739Z,52.50
2022-09-06T19:32:15.040Z,52.60
2022-09-06T19:34:44.695Z,52.40
2022-09-06T19:37:14.575Z,52.60
2022-09-06T19:39:44.120Z,52.40
2022-09-06T19:42:13.676Z,52.70
2022-09-06T19:44:43.381Z,52.40
2022-09-06T19:47:13.518Z,52.60
2022-09-06T19:49:43.192Z,52.60
2022-09-06T19:52:12.748Z,52.80
2022-09-06T19:54:43.727Z,52.60
2022-09-06T19:57:13.442Z,52.60
2022-09-06T19:59:43.619Z,52.80
2022-09-06T20:02:13.474Z,52.70
2022-09-06T20:04:43.285Z,52.80
2022-09-06T20:07:12.789Z,52.60
2022-09-06T20:09:42.399Z,52.70
2022-09-06T20:12:13.390Z,52.90
2022-09-06T20:14:43.133Z,52.70
2022-09-06T20:17:32.622Z,52.80
2022-09-06T20:20:03.124Z,52.80
2022-09-06T20:22:32.971Z,52.80
2022-09-06T20:25:02.404Z,52.90
2022-09-06T20:27:32.207Z,52.70
2022-09-06T20:30:02.531Z,52.80
2022-09-06T20:32:32.879Z,52.80
2022-09-06T20:35:02.574Z,53.00
2022-09-06T20:37:32.273Z,53.10
2022-09-06T20:40:03.262Z,52.90
2022-09-06T20:42:33.001Z,53.10
2022-09-06T20:45:04.659Z,53.10
2022-09-06T20:47:34.207Z,53.20
2022-09-06T20:50:04.374Z,53.20
2022-09-06T20:52:34.539Z,53.20
2022-09-06T20:55:05.931Z,53.20
2022-09-06T20:57:35.745Z,53.00
2022-09-06T21:00:14.218Z,53.10
2022-09-06T21:02:44.754Z,53.00
2022-09-06T21:05:14.778Z,53.30
2022-09-06T21:07:44.351Z,53.20
2022-09-06T21:10:14.387Z,53.10
2022-09-06T21:12:43.897Z,53.00
2022-09-06T21:15:13.434Z,53.10
2022-09-06T21:17:42.966Z,53.10
2022-09-06T21:20:12.906Z,53.20
2022-09-06T21:22:42.961Z,53.20
2022-09-06T21:25:12.706Z,53.20
2022-09-06T21:27:43.745Z,53.30
2022-09-06T21:30:14.086Z,53.30
2022-09-06T21:32:43.586Z,53.30
2022-09-06T21:35:13.086Z,53.40
2022-09-06T21:37:42.803Z,53.40
2022-09-06T21:40:12.440Z,53.30
2022-09-06T21:42:41.952Z,53.30
2022-09-06T21:45:11.704Z,53.30
2022-09-06T21:47:41.184Z,53.50
2022-09-06T21:50:10.929Z,53.30
2022-09-06T21:52:40.411Z,53.40
2022-09-06T21:55:13.581Z,53.30
2022-09-06T21:57:45.114Z,53.10
2022-09-06T22:00:15.667Z,53.40
2022-09-06T22:02:45.786Z,53.30
2022-09-06T22:05:15.317Z,53.40
2022-09-06T22:07:44.771Z,53.30
2022-09-06T22:10:14.284Z,53.50
2022-09-06T22:12:44.130Z,53.40
2022-09-06T22:15:13.654Z,53.40
2022-09-06T22:17:43.098Z,53.40
2022-09-06T22:20:13.382Z,53.40
2022-09-06T22:22:45.132Z,53.50
2022-09-06T22:25:15.083Z,53.40
2022-09-06T22:27:44.698Z,53.20
2022-09-06T22:30:14.747Z,53.50
2022-09-06T22:32:44.272Z,53.50
2022-09-06T22:35:13.717Z,53.60
2022-09-06T22:37:43.174Z,53.60
2022-09-06T22:40:13.015Z,53.50
2022-09-06T22:42:44.542Z,53.60
2022-09-06T22:45:17.458Z,53.50
2022-09-06T22:47:48.464Z,53.50
2022-09-06T22:50:19.501Z,53.60
2022-09-06T22:52:49.765Z,53.40
2022-09-06T22:55:20.308Z,53.40
2022-09-06T22:57:50.764Z,53.50
2022-09-06T23:00:26.265Z,53.50
2022-09-06T23:03:01.128Z,53.60
2022-09-06T23:05:35.499Z,53.30
2022-09-06T23:08:05.687Z,53.40
2022-09-06T23:10:39.981Z,53.60
2022-09-06T23:13:10.263Z,53.60
2022-09-06T23:15:41.830Z,53.70
2022-09-06T23:18:12.096Z,53.80
2022-09-06T23:20:41.904Z,53.80
2022-09-06T23:23:11.489Z,53.80
2022-09-06T23:25:40.938Z,53.80
2022-09-06T23:28:10.424Z,53.90
2022-09-06T23:30:40.003Z,53.70
2022-09-06T23:33:09.502Z,53.60
2022-09-06T23:35:40.366Z,53.80
2022-09-06T23:38:13.072Z,53.70
2022-09-06T23:40:43.001Z,53.60
2022-09-06T23:43:12.785Z,53.60
2022-09-06T23:45:42.604Z,53.40
2022-09-06T23:48:13.300Z,53.70
2022-09-06T23:50:46.707Z,53.60
2022-09-06T23:53:16.654Z,53.40
2022-09-06T23:55:46.245Z,53.30
2022-09-06T23:58:15.759Z,53.50
